Time;durP1;ratioP1;P1;durP2;ratioP2;P2;SDS_P1;SDS_P2;PMS_P1;PMS_P2;Temp;Humidity;BMP_temperature;BMP_pressure;BME280_temperature;BME280_humidity;BME280_pressure;Samples;Min_cycle;Max_cycle;Signal;HPM_P1;HPM_P2
2022/06/18 00:02:20;;;;;;;2.27;1.70;;;;;;;;;;5055689;28;20508;-77
2022/06/18 00:04:46;;;;;;;2.53;2.00;;;;;;;;;;5055148;28;20945;-77
2022/06/18 00:07:20;;;;;;;3.10;2.10;;;;;;;;;;5055745;28;20408;-77
2022/06/18 00:09:53;;;;;;;2.43;1.60;;;;;;;;;;5055667;28;20472;-78
2022/06/18 00:15:18;;;;;;;2.53;1.83;;;;;;;;;;5055351;28;20777;-78
2022/06/18 00:17:44;;;;;;;2.73;1.93;;;;;;;;;;5055778;28;20386;-77
2022/06/18 00:20:11;;;;;;;2.33;2.07;;;;;;;;;;5055710;28;20454;-77
2022/06/18 00:22:37;;;;;;;3.00;1.63;;;;;;;;;;5055597;28;20400;-80
2022/06/18 00:25:07;;;;;;;3.40;2.13;;;;;;;;;;5055114;28;20420;-78
2022/06/18 00:27:33;;;;;;;3.30;1.80;;;;;;;;;;5055228;28;20413;-78
2022/06/18 00:29:59;;;;;;;2.23;1.73;;;;;;;;;;5055110;28;20513;-78
2022/06/18 00:32:25;;;;;;;2.63;1.90;;;;;;;;;;5055077;28;20507;-78
2022/06/18 00:34:51;;;;;;;2.23;1.80;;;;;;;;;;5054140;28;20433;-77
2022/06/18 00:37:19;;;;;;;2.70;1.77;;;;;;;;;;5054928;28;20872;-77
2022/06/18 00:39:45;;;;;;;2.10;1.83;;;;;;;;;;5053693;28;20413;-77
2022/06/18 00:42:18;;;;;;;2.80;1.70;;;;;;;;;;5054960;28;20435;-80
2022/06/18 00:44:51;;;;;;;2.90;2.10;;;;;;;;;;5054426;28;20424;-79
2022/06/18 00:47:21;;;;;;;2.87;1.47;;;;;;;;;;5053698;28;20416;-77
2022/06/18 00:49:55;;;;;;;2.50;1.67;;;;;;;;;;5054865;28;20507;-78
2022/06/18 00:52:24;;;;;;;2.17;1.97;;;;;;;;;;5054809;28;20885;-78
2022/06/18 00:54:53;;;;;;;2.10;1.90;;;;;;;;;;5054228;28;20440;-78
2022/06/18 00:57:28;;;;;;;2.03;1.83;;;;;;;;;;5054760;28;20864;-77
2022/06/18 01:00:06;;;;;;;4.43;2.17;;;;;;;;;;5053377;28;20419;-78
2022/06/18 01:02:37;;;;;;;1.67;1.57;;;;;;;;;;5054710;28;20420;-78
2022/06/18 01:05:13;;;;;;;3.03;1.87;;;;;;;;;;5054319;28;20420;-78
2022/06/18 01:07:39;;;;;;;1.53;1.40;;;;;;;;;;5053440;28;20967;-78
2022/06/18 01:10:12;;;;;;;1.50;1.40;;;;;;;;;;5054451;28;20460;-78
2022/06/18 01:12:38;;;;;;;2.10;1.80;;;;;;;;;;5054856;28;20418;-78
2022/06/18 01:15:07;;;;;;;3.47;1.90;;;;;;;;;;5054126;28;20834;-78
2022/06/18 01:17:33;;;;;;;3.70;2.00;;;;;;;;;;5054385;28;20425;-77
2022/06/18 01:20:00;;;;;;;3.33;2.30;;;;;;;;;;5053208;28;20781;-78
2022/06/18 01:22:47;;;;;;;3.70;1.90;;;;;;;;;;5054358;28;20433;-78
2022/06/18 01:25:14;;;;;;;2.20;1.70;;;;;;;;;;5053767;28;20432;-79
2022/06/18 01:27:40;;;;;;;2.23;1.80;;;;;;;;;;5054094;28;20426;-78
2022/06/18 01:30:11;;;;;;;1.73;1.63;;;;;;;;;;5054070;28;20448;-77
2022/06/18 01:32:38;;;;;;;2.80;1.73;;;;;;;;;;5054235;28;20460;-78
2022/06/18 01:35:05;;;;;;;2.33;1.63;;;;;;;;;;5053804;28;20425;-78
2022/06/18 01:37:31;;;;;;;2.40;1.97;;;;;;;;;;5054012;28;20436;-78
2022/06/18 01:39:57;;;;;;;2.20;1.83;;;;;;;;;;5054008;28;20408;-78
2022/06/18 01:42:26;;;;;;;1.93;1.80;;;;;;;;;;5052822;28;20449;-77
2022/06/18 01:44:58;;;;;;;2.60;1.87;;;;;;;;;;5053098;28;20515;-78
2022/06/18 01:47:24;;;;;;;3.23;2.13;;;;;;;;;;5052000;28;20929;-78
2022/06/18 01:49:59;;;;;;;1.90;1.70;;;;;;;;;;5053694;28;20460;-78
2022/06/18 01:52:28;;;;;;;2.40;1.90;;;;;;;;;;5053682;28;20382;-78
2022/06/18 01:54:55;;;;;;;3.47;2.10;;;;;;;;;;5052028;28;20817;-78
2022/06/18 01:57:24;;;;;;;3.77;1.70;;;;;;;;;;5053411;28;20911;-77
2022/06/18 01:59:52;;;;;;;1.90;1.70;;;;;;;;;;5052353;28;20400;-78
2022/06/18 02:02:18;;;;;;;2.03;1.60;;;;;;;;;;5053532;28;20415;-77
2022/06/18 02:04:44;;;;;;;1.80;1.60;;;;;;;;;;5052060;28;20456;-78
2022/06/18 02:07:10;;;;;;;2.63;1.80;;;;;;;;;;5052329;28;20519;-78
2022/06/18 02:09:49;;;;;;;3.27;2.10;;;;;;;;;;5053213;28;20464;-78
2022/06/18 02:12:17;;;;;;;2.20;1.70;;;;;;;;;;5053420;28;20866;-77
2022/06/18 02:14:46;;;;;;;2.03;1.83;;;;;;;;;;5053054;28;20424;-77
2022/06/18 02:17:17;;;;;;;3.07;1.77;;;;;;;;;;5053316;28;20415;-78
2022/06/18 02:19:44;;;;;;;1.80;1.63;;;;;;;;;;5053255;28;20886;-78
2022/06/18 02:22:11;;;;;;;4.23;2.20;;;;;;;;;;5053234;28;20413;-78
2022/06/18 02:24:37;;;;;;;2.90;2.03;;;;;;;;;;5052919;28;20794;-77
2022/06/18 02:27:03;;;;;;;3.30;2.03;;;;;;;;;;5053262;28;20430;-78
2022/06/18 02:29:31;;;;;;;2.20;2.00;;;;;;;;;;5053258;28;20487;-78
2022/06/18 02:31:57;;;;;;;2.77;2.57;;;;;;;;;;5051643;28;20932;-77
2022/06/18 02:34:26;;;;;;;2.23;2.03;;;;;;;;;;5052659;28;20752;-78
2022/06/18 02:36:52;;;;;;;3.20;2.37;;;;;;;;;;5053073;28;20905;-78
2022/06/18 02:39:24;;;;;;;2.90;2.07;;;;;;;;;;5052979;28;20395;-78
2022/06/18 02:41:50;;;;;;;4.53;2.83;;;;;;;;;;5052891;28;20412;-78
2022/06/18 02:44:16;;;;;;;2.20;2.00;;;;;;;;;;5052627;28;20387;-78
2022/06/18 02:46:42;;;;;;;2.43;2.10;;;;;;;;;;5053092;28;20424;-77
2022/06/18 02:49:10;;;;;;;2.10;1.90;;;;;;;;;;5052893;28;20434;-78
2022/06/18 02:51:36;;;;;;;3.00;1.87;;;;;;;;;;5052841;28;20408;-77
2022/06/18 02:54:02;;;;;;;2.50;2.13;;;;;;;;;;5052504;28;20400;-78
2022/06/18 02:56:28;;;;;;;2.33;1.67;;;;;;;;;;5051682;28;20433;-77
2022/06/18 02:58:54;;;;;;;3.00;1.60;;;;;;;;;;5057013;28;20474;-78
2022/06/18 03:01:22;;;;;;;2.80;2.17;;;;;;;;;;5055730;28;20518;-77
2022/06/18 03:03:49;;;;;;;2.10;1.90;;;;;;;;;;5056547;28;20416;-79
2022/06/18 03:06:16;;;;;;;3.60;2.57;;;;;;;;;;5056686;28;20982;-78
2022/06/18 03:08:46;;;;;;;2.20;2.00;;;;;;;;;;5056734;28;20460;-78
2022/06/18 03:13:57;;;;;;;2.10;1.77;;;;;;;;;;5056695;28;20422;-80
2022/06/18 03:16:23;;;;;;;2.90;1.77;;;;;;;;;;5055384;28;20968;-78
2022/06/18 03:18:51;;;;;;;2.40;2.07;;;;;;;;;;5056909;28;20423;-78
2022/06/18 03:21:34;;;;;;;2.80;1.40;;;;;;;;;;5056919;28;20417;-78
2022/06/18 03:24:01;;;;;;;4.07;2.20;;;;;;;;;;5056112;28;20394;-78
2022/06/18 03:26:27;;;;;;;2.63;2.10;;;;;;;;;;5056384;28;20829;-78
2022/06/18 03:28:53;;;;;;;2.63;1.80;;;;;;;;;;5056379;28;20457;-78
2022/06/18 03:31:19;;;;;;;2.53;1.70;;;;;;;;;;5056449;28;20434;-78
2022/06/18 03:33:46;;;;;;;4.03;1.93;;;;;;;;;;5055960;28;20497;-77
2022/06/18 03:36:13;;;;;;;2.43;2.00;;;;;;;;;;5056294;28;20511;-79
2022/06/18 03:38:39;;;;;;;2.40;1.97;;;;;;;;;;5056718;28;20417;-78
2022/06/18 03:41:08;;;;;;;1.93;1.73;;;;;;;;;;5055074;28;20924;-78
2022/06/18 03:43:34;;;;;;;3.57;1.77;;;;;;;;;;5055920;28;20765;-78
2022/06/18 03:46:01;;;;;;;1.80;1.70;;;;;;;;;;5056188;28;20520;-78
2022/06/18 03:48:47;;;;;;;2.67;1.90;;;;;;;;;;5054730;28;20885;-78
2022/06/18 03:51:14;;;;;;;4.43;2.20;;;;;;;;;;5056055;28;20383;-78
2022/06/18 03:53:41;;;;;;;2.07;1.73;;;;;;;;;;5055729;28;20383;-77
2022/06/18 03:56:07;;;;;;;2.60;2.33;;;;;;;;;;5055793;28;20860;-78
2022/06/18 03:58:34;;;;;;;3.73;2.40;;;;;;;;;;5055858;28;20460;-78
2022/06/18 04:01:00;;;;;;;3.13;1.63;;;;;;;;;;5055871;28;20748;-77
2022/06/18 04:03:25;;;;;;;3.80;2.17;;;;;;;;;;5055453;28;20920;-77
2022/06/18 04:05:52;;;;;;;3.63;2.20;;;;;;;;;;5054506;28;20517;-77
2022/06/18 04:08:19;;;;;;;3.10;2.20;;;;;;;;;;5054695;28;20452;-77
2022/06/18 04:10:45;;;;;;;4.23;1.80;;;;;;;;;;5055674;28;20404;-77
2022/06/18 04:13:11;;;;;;;2.63;2.10;;;;;;;;;;5055312;28;20416;-78
2022/06/18 04:15:37;;;;;;;5.20;1.70;;;;;;;;;;5055416;28;20418;-77
2022/06/18 04:18:04;;;;;;;2.13;1.87;;;;;;;;;;5055655;28;20971;-78
2022/06/18 04:20:35;;;;;;;3.00;2.03;;;;;;;;;;5055367;28;20382;-77
2022/06/18 04:23:01;;;;;;;3.90;1.70;;;;;;;;;;5055191;28;20408;-79
2022/06/18 04:25:28;;;;;;;2.00;1.90;;;;;;;;;;5054083;28;20506;-78
2022/06/18 04:27:57;;;;;;;4.47;2.40;;;;;;;;;;5055436;28;20745;-78
2022/06/18 04:30:23;;;;;;;2.40;2.20;;;;;;;;;;5055415;28;20464;-78
2022/06/18 04:32:49;;;;;;;1.80;1.70;;;;;;;;;;5055103;28;20420;-78
2022/06/18 04:35:15;;;;;;;2.23;2.03;;;;;;;;;;5055311;28;20463;-77
2022/06/18 04:37:43;;;;;;;2.13;1.93;;;;;;;;;;5054307;28;20415;-78
2022/06/18 04:40:12;;;;;;;5.17;2.40;;;;;;;;;;5055172;28;20427;-78
2022/06/18 04:42:38;;;;;;;2.30;1.97;;;;;;;;;;5055032;28;20421;-77
2022/06/18 04:45:04;;;;;;;3.50;2.50;;;;;;;;;;5054716;28;20448;-78
2022/06/18 04:47:30;;;;;;;2.10;1.90;;;;;;;;;;5054993;28;20417;-77
2022/06/18 04:49:56;;;;;;;3.73;2.10;;;;;;;;;;5054897;28;20506;-78
2022/06/18 04:52:22;;;;;;;6.57;2.03;;;;;;;;;;5054758;28;20409;-77
2022/06/18 04:54:52;;;;;;;2.27;2.07;;;;;;;;;;5054508;28;20991;-77
2022/06/18 04:57:18;;;;;;;5.40;2.30;;;;;;;;;;5054789;28;20413;-78
2022/06/18 04:59:43;;;;;;;2.90;1.97;;;;;;;;;;5054734;28;20411;-78
2022/06/18 05:02:16;;;;;;;2.53;2.00;;;;;;;;;;5054679;28;20417;-78
2022/06/18 05:04:42;;;;;;;3.10;1.90;;;;;;;;;;5054251;28;20466;-77
2022/06/18 05:07:08;;;;;;;2.33;2.13;;;;;;;;;;5053354;28;20423;-78
2022/06/18 05:09:34;;;;;;;3.73;2.17;;;;;;;;;;5054437;28;20471;-78
2022/06/18 05:12:00;;;;;;;2.73;2.30;;;;;;;;;;5054523;28;20413;-78
2022/06/18 05:14:26;;;;;;;3.20;2.17;;;;;;;;;;5054064;28;20408;-78
2022/06/18 05:16:52;;;;;;;3.20;2.60;;;;;;;;;;5054476;28;20853;-79
2022/06/18 05:19:26;;;;;;;2.33;2.13;;;;;;;;;;5054209;28;20417;-78
2022/06/18 05:21:52;;;;;;;6.93;2.47;;;;;;;;;;5053083;28;20791;-78
2022/06/18 05:24:18;;;;;;;3.83;2.30;;;;;;;;;;5053935;28;20387;-77
2022/06/18 05:26:46;;;;;;;2.70;2.07;;;;;;;;;;5054285;28;20420;-78
2022/06/18 05:29:12;;;;;;;3.20;2.30;;;;;;;;;;5054075;28;20441;-78
2022/06/18 05:31:38;;;;;;;2.20;1.97;;;;;;;;;;5054134;28;20409;-78
2022/06/18 05:34:04;;;;;;;6.30;2.03;;;;;;;;;;5053978;28;20410;-78
2022/06/18 05:36:30;;;;;;;3.50;1.93;;;;;;;;;;5054021;28;20428;-77
2022/06/18 05:38:57;;;;;;;2.80;2.10;;;;;;;;;;5054053;28;20417;-78
2022/06/18 05:41:23;;;;;;;3.80;2.17;;;;;;;;;;5052669;28;20929;-77
2022/06/18 05:43:50;;;;;;;2.03;1.73;;;;;;;;;;5053861;28;20454;-78
2022/06/18 05:46:16;;;;;;;2.70;1.90;;;;;;;;;;5053812;28;20452;-78
2022/06/18 05:48:42;;;;;;;3.40;2.03;;;;;;;;;;5053782;28;20468;-78
2022/06/18 05:51:08;;;;;;;2.73;2.27;;;;;;;;;;5053792;28;20412;-80
2022/06/18 05:53:34;;;;;;;5.13;2.50;;;;;;;;;;5053390;28;20413;-77
2022/06/18 05:56:00;;;;;;;4.30;1.90;;;;;;;;;;5053609;28;20436;-79
2022/06/18 05:58:27;;;;;;;3.17;2.47;;;;;;;;;;5053700;28;20424;-78
2022/06/18 06:00:53;;;;;;;3.73;2.10;;;;;;;;;;5053677;28;20818;-78
2022/06/18 06:03:19;;;;;;;2.77;2.53;;;;;;;;;;5051933;28;20423;-78
2022/06/18 06:05:45;;;;;;;2.77;2.00;;;;;;;;;;5053495;28;20508;-79
2022/06/18 06:08:14;;;;;;;5.60;2.17;;;;;;;;;;5053433;28;20444;-79
2022/06/18 06:13:25;;;;;;;2.40;2.20;;;;;;;;;;5053022;28;20399;-78
2022/06/18 06:15:53;;;;;;;2.60;2.40;;;;;;;;;;5052064;28;20466;-78
2022/06/18 06:18:20;;;;;;;2.90;2.10;;;;;;;;;;5052335;28;20494;-78
2022/06/18 06:20:47;;;;;;;3.17;2.30;;;;;;;;;;5053644;28;20483;-78
2022/06/18 06:23:14;;;;;;;4.30;2.23;;;;;;;;;;5052943;28;20404;-77
2022/06/18 06:25:41;;;;;;;4.67;2.00;;;;;;;;;;5053172;28;20463;-78
2022/06/18 06:28:09;;;;;;;4.43;2.23;;;;;;;;;;5053242;28;20894;-78
2022/06/18 06:30:35;;;;;;;3.60;2.30;;;;;;;;;;5053348;28;20504;-79
2022/06/18 06:33:01;;;;;;;2.37;2.00;;;;;;;;;;5052303;28;20431;-78
2022/06/18 06:35:27;;;;;;;2.40;2.20;;;;;;;;;;5051675;28;20435;-78
2022/06/18 06:37:53;;;;;;;5.90;2.60;;;;;;;;;;5053090;28;20432;-79
2022/06/18 06:40:19;;;;;;;2.60;1.90;;;;;;;;;;5052963;28;20422;-79
2022/06/18 06:42:52;;;;;;;2.70;2.00;;;;;;;;;;5052880;28;20446;-78
2022/06/18 06:45:20;;;;;;;10.03;2.50;;;;;;;;;;5052850;28;20482;-78
2022/06/18 06:47:46;;;;;;;3.80;2.13;;;;;;;;;;5052993;28;20405;-79
2022/06/18 06:50:13;;;;;;;6.03;2.17;;;;;;;;;;5052853;28;20475;-79
2022/06/18 06:52:39;;;;;;;3.47;2.20;;;;;;;;;;5052948;28;20406;-79
2022/06/18 06:57:59;;;;;;;2.87;2.57;;;;;;;;;;5053269;28;20813;-79
2022/06/18 07:00:25;;;;;;;5.80;2.50;;;;;;;;;;5052859;28;20407;-79
2022/06/18 07:02:51;;;;;;;3.70;2.20;;;;;;;;;;5052748;28;20473;-79
2022/06/18 07:05:17;;;;;;;4.43;2.27;;;;;;;;;;5052595;28;20470;-79
2022/06/18 07:07:43;;;;;;;2.43;2.20;;;;;;;;;;5052661;28;20443;-78
2022/06/18 07:10:10;;;;;;;2.80;2.23;;;;;;;;;;5051639;28;20470;-79
2022/06/18 07:12:37;;;;;;;4.37;2.27;;;;;;;;;;5052760;28;20415;-78
2022/06/18 07:15:06;;;;;;;5.60;2.47;;;;;;;;;;5052311;28;20459;-79
2022/06/18 07:17:33;;;;;;;4.10;2.30;;;;;;;;;;5052666;28;20420;-78
2022/06/18 07:19:59;;;;;;;2.10;2.00;;;;;;;;;;5051532;28;21047;-79
2022/06/18 07:22:25;;;;;;;4.70;2.40;;;;;;;;;;5052865;28;20446;-77
2022/06/18 07:24:52;;;;;;;13.80;2.37;;;;;;;;;;5052656;28;20432;-77
2022/06/18 07:27:18;;;;;;;4.70;2.03;;;;;;;;;;5052960;28;20901;-77
2022/06/18 07:29:44;;;;;;;3.37;2.43;;;;;;;;;;5052711;28;20518;-77
2022/06/18 07:32:14;;;;;;;8.90;2.87;;;;;;;;;;5052213;28;20497;-77
2022/06/18 07:34:40;;;;;;;4.07;2.37;;;;;;;;;;5052166;28;20439;-77
2022/06/18 07:37:06;;;;;;;3.10;2.77;;;;;;;;;;5052645;28;20440;-77
2022/06/18 07:39:32;;;;;;;3.00;2.20;;;;;;;;;;5052194;28;20462;-78
2022/06/18 07:41:58;;;;;;;2.60;2.17;;;;;;;;;;5052377;28;20444;-78
2022/06/18 07:44:25;;;;;;;6.20;2.23;;;;;;;;;;5053602;28;20442;-77
2022/06/18 07:46:52;;;;;;;4.47;2.00;;;;;;;;;;5056264;28;20448;-78
2022/06/18 07:49:18;;;;;;;6.73;2.23;;;;;;;;;;5056026;28;20458;-78
2022/06/18 07:51:45;;;;;;;3.50;2.37;;;;;;;;;;5056204;28;20417;-77
2022/06/18 07:54:15;;;;;;;4.13;2.50;;;;;;;;;;5055637;28;20405;-77
2022/06/18 07:56:41;;;;;;;7.93;2.87;;;;;;;;;;5055948;28;20413;-78
2022/06/18 07:59:07;;;;;;;10.20;3.23;;;;;;;;;;5055973;28;20553;-80
2022/06/18 08:01:33;;;;;;;4.53;2.30;;;;;;;;;;5055944;28;20901;-79
2022/06/18 08:03:59;;;;;;;2.67;2.20;;;;;;;;;;5055350;28;20419;-79
2022/06/18 08:06:25;;;;;;;4.73;2.97;;;;;;;;;;5055695;28;20504;-80
2022/06/18 08:08:51;;;;;;;3.47;2.37;;;;;;;;;;5055701;28;20522;-80
2022/06/18 08:11:19;;;;;;;2.57;2.37;;;;;;;;;;5055771;28;20552;-79
2022/06/18 08:13:45;;;;;;;4.10;2.63;;;;;;;;;;5055281;28;20416;-80
2022/06/18 08:16:13;;;;;;;2.50;2.10;;;;;;;;;;5055647;28;20442;-79
2022/06/18 08:18:39;;;;;;;2.57;2.37;;;;;;;;;;5055768;28;20495;-79
2022/06/18 08:21:07;;;;;;;3.93;2.40;;;;;;;;;;5055600;28;20787;-75
2022/06/18 08:23:34;;;;;;;3.73;2.33;;;;;;;;;;5055213;28;20448;-80
2022/06/18 08:26:00;;;;;;;3.57;2.67;;;;;;;;;;5055247;28;20508;-80
2022/06/18 08:28:27;;;;;;;3.20;2.80;;;;;;;;;;5054992;28;20501;-80
2022/06/18 08:30:53;;;;;;;4.97;2.60;;;;;;;;;;5054955;28;20437;-80
2022/06/18 08:33:19;;;;;;;5.70;2.70;;;;;;;;;;5054628;28;20797;-79
2022/06/18 08:35:45;;;;;;;3.70;2.47;;;;;;;;;;5055434;28;20432;-80
2022/06/18 08:38:12;;;;;;;6.10;2.60;;;;;;;;;;5055457;28;20428;-80
2022/06/18 08:41:05;;;;;;;9.57;2.57;;;;;;;;;;5055316;28;20416;-79
2022/06/18 08:43:33;;;;;;;4.33;2.33;;;;;;;;;;5055030;28;20442;-80
2022/06/18 08:46:18;;;;;;;5.03;2.20;;;;;;;;;;5055379;28;20973;-80
2022/06/18 08:49:07;;;;;;;3.83;2.50;;;;;;;;;;5055051;28;20956;-80
2022/06/18 08:51:33;;;;;;;4.80;2.47;;;;;;;;;;5044663;28;20539;-80
2022/06/18 08:54:05;;;;;;;5.43;2.47;;;;;;;;;;5054623;28;20412;-76
2022/06/18 08:56:38;;;;;;;4.17;2.60;;;;;;;;;;5054409;28;20485;-80
2022/06/18 08:59:12;;;;;;;5.37;2.40;;;;;;;;;;5054752;28;20553;-75
2022/06/18 09:01:40;;;;;;;5.03;2.63;;;;;;;;;;5055032;28;20769;-77
2022/06/18 09:04:06;;;;;;;3.70;2.23;;;;;;;;;;5054362;28;20517;-78
2022/06/18 09:06:32;;;;;;;9.50;3.00;;;;;;;;;;5054477;28;20858;-76
2022/06/18 09:09:25;;;;;;;7.13;3.00;;;;;;;;;;5054469;28;20460;-79
2022/06/18 09:12:00;;;;;;;3.60;2.43;;;;;;;;;;5053677;28;20506;-77
2022/06/18 09:14:33;;;;;;;6.73;3.00;;;;;;;;;;5054092;28;20407;-76
2022/06/18 09:17:11;;;;;;;4.63;2.33;;;;;;;;;;5054428;28;20488;-77
2022/06/18 09:19:38;;;;;;;6.43;2.60;;;;;;;;;;5054574;28;20408;-78
2022/06/18 09:22:06;;;;;;;9.10;2.80;;;;;;;;;;5054499;28;20401;-80
2022/06/18 09:24:37;;;;;;;5.10;2.57;;;;;;;;;;5054025;28;20428;-80
2022/06/18 09:27:05;;;;;;;4.63;2.67;;;;;;;;;;5054193;28;20409;-80
2022/06/18 09:29:46;;;;;;;8.63;2.77;;;;;;;;;;5054431;28;20490;-78
2022/06/18 09:32:28;;;;;;;5.80;2.70;;;;;;;;;;5054046;28;20420;-78
2022/06/18 09:35:08;;;;;;;5.67;2.60;;;;;;;;;;5053805;28;20566;-79
2022/06/18 09:37:39;;;;;;;5.93;2.80;;;;;;;;;;5052743;28;20833;-76
2022/06/18 09:40:09;;;;;;;4.40;2.97;;;;;;;;;;5054107;28;20428;-79
2022/06/18 09:42:38;;;;;;;7.00;3.10;;;;;;;;;;5054184;28;20405;-78
2022/06/18 09:45:04;;;;;;;4.37;2.60;;;;;;;;;;5053474;28;20495;-79
2022/06/18 09:47:36;;;;;;;4.73;2.90;;;;;;;;;;5053953;28;20413;-77
2022/06/18 09:50:03;;;;;;;6.10;2.80;;;;;;;;;;5053867;28;20885;-77
2022/06/18 09:52:34;;;;;;;8.37;3.23;;;;;;;;;;5053890;28;20792;-76
2022/06/18 09:55:09;;;;;;;5.87;2.97;;;;;;;;;;5053417;28;20421;-78
2022/06/18 09:57:37;;;;;;;8.13;3.17;;;;;;;;;;5053861;28;20593;-77
2022/06/18 10:00:04;;;;;;;6.13;2.83;;;;;;;;;;5053753;28;20417;-79
2022/06/18 10:02:32;;;;;;;6.87;3.07;;;;;;;;;;5053711;28;20451;-77
2022/06/18 10:07:46;;;;;;;5.70;2.93;;;;;;;;;;5053147;28;20939;-77
2022/06/18 10:10:14;;;;;;;5.33;2.50;;;;;;;;;;5052100;28;20479;-77
2022/06/18 10:12:48;;;;;;;5.43;2.60;;;;;;;;;;5053575;28;20415;-77
2022/06/18 10:15:15;;;;;;;5.93;3.03;;;;;;;;;;5052977;28;20498;-76
2022/06/18 10:18:02;;;;;;;4.97;2.67;;;;;;;;;;5053253;28;20458;-78
2022/06/18 10:21:01;;;;;;;10.13;3.50;;;;;;;;;;5053277;28;20413;-78
2022/06/18 10:23:39;;;;;;;5.63;3.23;;;;;;;;;;5041222;28;20491;-79
2022/06/18 10:26:05;;;;;;;4.63;3.00;;;;;;;;;;5053191;28;20436;-77
2022/06/18 10:28:50;;;;;;;4.30;2.53;;;;;;;;;;5053129;28;20507;-77
2022/06/18 10:31:38;;;;;;;6.27;3.07;;;;;;;;;;5052956;28;20397;-76
2022/06/18 10:34:13;;;;;;;7.07;3.10;;;;;;;;;;5052848;28;20413;-75
2022/06/18 10:36:51;;;;;;;7.90;3.47;;;;;;;;;;5053206;28;20397;-75
2022/06/18 10:39:22;;;;;;;6.50;3.30;;;;;;;;;;5052954;28;20450;-75
2022/06/18 10:41:56;;;;;;;6.20;3.03;;;;;;;;;;5053098;28;20803;-75
2022/06/18 10:44:45;;;;;;;6.50;3.00;;;;;;;;;;5052848;28;20479;-75
2022/06/18 10:47:16;;;;;;;10.70;3.00;;;;;;;;;;5033413;28;20470;-76
2022/06/18 10:49:42;;;;;;;7.83;3.40;;;;;;;;;;5053257;28;20464;-75
2022/06/18 10:52:20;;;;;;;8.37;3.37;;;;;;;;;;5051912;28;20422;-75
2022/06/18 10:54:46;;;;;;;7.20;3.50;;;;;;;;;;5052667;28;20428;-75
2022/06/18 10:57:22;;;;;;;5.80;3.23;;;;;;;;;;5052997;28;20956;-76
2022/06/18 10:59:48;;;;;;;8.93;2.90;;;;;;;;;;5053309;28;20404;-76
2022/06/18 11:02:16;;;;;;;12.67;2.90;;;;;;;;;;5053207;28;20423;-77
2022/06/18 11:04:50;;;;;;;7.23;3.23;;;;;;;;;;5052928;28;20929;-77
2022/06/18 11:07:21;;;;;;;10.10;3.87;;;;;;;;;;5053170;28;20820;-77
2022/06/18 11:09:47;;;;;;;5.07;3.33;;;;;;;;;;5053053;28;20514;-77
2022/06/18 11:12:20;;;;;;;8.93;2.93;;;;;;;;;;5053030;28;20401;-76
2022/06/18 11:14:47;;;;;;;9.73;3.00;;;;;;;;;;5051414;28;20937;-76
2022/06/18 11:17:26;;;;;;;9.90;3.37;;;;;;;;;;5053252;28;20959;-77
2022/06/18 11:19:53;;;;;;;10.87;3.93;;;;;;;;;;5056907;28;20431;-76
2022/06/18 11:22:22;;;;;;;10.07;2.90;;;;;;;;;;5056748;28;20420;-77
2022/06/18 11:24:58;;;;;;;11.33;3.47;;;;;;;;;;5056747;28;20444;-77
2022/06/18 11:27:28;;;;;;;5.63;3.30;;;;;;;;;;5056887;28;20404;-76
2022/06/18 11:29:55;;;;;;;9.93;3.03;;;;;;;;;;5056378;28;20455;-76
2022/06/18 11:32:24;;;;;;;10.00;3.80;;;;;;;;;;5056776;28;20423;-76
2022/06/18 11:35:10;;;;;;;13.30;3.70;;;;;;;;;;5055173;28;20421;-76
2022/06/18 11:37:37;;;;;;;13.37;3.60;;;;;;;;;;5056769;28;20423;-75
2022/06/18 11:40:03;;;;;;;9.70;3.93;;;;;;;;;;5056769;28;20412;-76
2022/06/18 11:42:48;;;;;;;6.57;3.40;;;;;;;;;;5056455;28;20810;-76
2022/06/18 11:45:17;;;;;;;10.70;3.07;;;;;;;;;;5056582;28;20778;-76
2022/06/18 11:47:54;;;;;;;10.67;3.60;;;;;;;;;;5056616;28;20412;-76
2022/06/18 11:50:23;;;;;;;7.10;3.60;;;;;;;;;;5056322;28;20468;-75
2022/06/18 11:53:13;;;;;;;3.83;2.83;;;;;;;;;;5052168;28;20474;-75
2022/06/18 11:55:46;;;;;;;8.63;3.10;;;;;;;;;;5042687;28;20499;-76
2022/06/18 11:58:21;;;;;;;6.53;3.33;;;;;;;;;;5046770;28;20991;-75
2022/06/18 12:00:53;;;;;;;4.80;3.00;;;;;;;;;;5051114;28;20409;-74
2022/06/18 12:03:25;;;;;;;9.10;3.00;;;;;;;;;;5055732;28;20436;-75
2022/06/18 12:05:53;;;;;;;13.83;3.70;;;;;;;;;;5051946;28;20467;-75
2022/06/18 12:08:21;;;;;;;6.80;3.33;;;;;;;;;;5043291;28;20418;-74
2022/06/18 12:10:55;;;;;;;10.93;3.20;;;;;;;;;;5053046;28;20420;-75
2022/06/18 12:13:41;;;;;;;9.70;3.73;;;;;;;;;;5048171;28;20400;-75
2022/06/18 12:16:13;;;;;;;13.97;3.17;;;;;;;;;;5044851;28;20445;-75
2022/06/18 12:18:50;;;;;;;7.20;2.93;;;;;;;;;;5041507;28;20414;-75
2022/06/18 12:21:16;;;;;;;6.90;3.13;;;;;;;;;;5049339;28;20837;-74
2022/06/18 12:24:15;;;;;;;7.27;3.47;;;;;;;;;;5045505;28;20473;-75
2022/06/18 12:26:51;;;;;;;9.50;3.37;;;;;;;;;;5031916;28;20969;-76
2022/06/18 12:29:17;;;;;;;8.27;3.20;;;;;;;;;;5046051;28;20480;-76
2022/06/18 12:32:02;;;;;;;5.90;3.37;;;;;;;;;;5046093;28;20436;-75
2022/06/18 12:34:33;;;;;;;8.60;3.40;;;;;;;;;;5042980;28;20432;-75
2022/06/18 12:37:07;;;;;;;14.37;4.10;;;;;;;;;;5042531;28;20463;-75
2022/06/18 12:39:41;;;;;;;8.53;3.43;;;;;;;;;;5039013;28;20490;-76
2022/06/18 12:42:13;;;;;;;9.07;2.90;;;;;;;;;;5041888;28;20772;-74
2022/06/18 12:44:50;;;;;;;8.50;4.00;;;;;;;;;;5051836;28;20426;-75
2022/06/18 12:47:34;;;;;;;7.67;2.97;;;;;;;;;;5052857;28;20404;-75
2022/06/18 12:50:15;;;;;;;11.67;3.50;;;;;;;;;;5046888;28;21014;-76
2022/06/18 12:52:52;;;;;;;12.63;3.10;;;;;;;;;;5055016;28;20771;-75
2022/06/18 12:55:34;;;;;;;8.83;3.70;;;;;;;;;;5055236;28;20420;-76
2022/06/18 12:58:06;;;;;;;7.20;3.20;;;;;;;;;;5055263;28;20412;-75
2022/06/18 13:00:50;;;;;;;10.37;3.70;;;;;;;;;;5054199;28;20449;-75
2022/06/18 13:03:35;;;;;;;7.43;3.00;;;;;;;;;;5054943;28;20756;-75
2022/06/18 13:06:06;;;;;;;8.90;3.57;;;;;;;;;;5055113;28;20456;-76
2022/06/18 13:08:46;;;;;;;9.40;3.23;;;;;;;;;;5055004;28;20492;-76
2022/06/18 13:11:21;;;;;;;10.73;3.57;;;;;;;;;;5054931;28;20943;-76
2022/06/18 13:13:47;;;;;;;8.10;3.03;;;;;;;;;;5053439;28;20901;-76
2022/06/18 13:16:16;;;;;;;4.57;3.27;;;;;;;;;;5053367;28;20448;-76
2022/06/18 13:19:00;;;;;;;5.73;2.90;;;;;;;;;;5054682;28;20412;-76
2022/06/18 13:21:26;;;;;;;7.77;3.70;;;;;;;;;;5054733;28;20455;-76
2022/06/18 13:29:26;;;;;;;10.03;3.27;;;;;;;;;;5054691;28;20490;-75
2022/06/18 13:31:55;;;;;;;6.20;3.20;;;;;;;;;;5054583;28;20432;-76
2022/06/18 13:34:24;;;;;;;8.60;3.40;;;;;;;;;;5054098;28;20423;-75
2022/06/18 13:36:53;;;;;;;8.37;3.80;;;;;;;;;;5054322;28;20912;-75
2022/06/18 13:39:42;;;;;;;9.33;3.13;;;;;;;;;;5054396;28;20423;-74
2022/06/18 13:42:16;;;;;;;8.50;3.77;;;;;;;;;;5044346;28;20424;-76
2022/06/18 13:44:42;;;;;;;7.33;3.37;;;;;;;;;;5045504;28;20774;-76
2022/06/18 13:47:18;;;;;;;10.40;3.50;;;;;;;;;;5054138;28;20412;-77
2022/06/18 13:49:51;;;;;;;9.37;2.90;;;;;;;;;;5054448;28;20463;-76
2022/06/18 13:52:18;;;;;;;16.80;3.30;;;;;;;;;;5054155;28;20389;-76
2022/06/18 13:54:52;;;;;;;7.20;2.77;;;;;;;;;;5053658;28;20432;-76
2022/06/18 13:57:22;;;;;;;9.63;3.60;;;;;;;;;;5054144;28;20416;-76
2022/06/18 13:59:51;;;;;;;5.80;3.30;;;;;;;;;;5054146;28;20404;-75
2022/06/18 14:02:26;;;;;;;7.83;2.87;;;;;;;;;;5053785;28;20413;-76
2022/06/18 14:04:57;;;;;;;11.67;3.53;;;;;;;;;;5053457;28;20429;-76
2022/06/18 14:07:26;;;;;;;12.20;3.40;;;;;;;;;;5052618;28;20874;-76
2022/06/18 14:09:55;;;;;;;13.80;3.60;;;;;;;;;;5053717;28;20456;-76
2022/06/18 14:12:41;;;;;;;6.80;2.87;;;;;;;;;;5053676;28;20409;-76
2022/06/18 14:15:19;;;;;;;8.80;3.53;;;;;;;;;;5053254;28;20486;-75
2022/06/18 14:17:48;;;;;;;8.80;3.50;;;;;;;;;;5053666;28;20815;-76
2022/06/18 14:20:34;;;;;;;9.57;3.20;;;;;;;;;;5053545;28;20448;-76
2022/06/18 14:23:00;;;;;;;11.77;4.27;;;;;;;;;;5053297;28;20450;-76
2022/06/18 14:25:26;;;;;;;8.07;3.60;;;;;;;;;;5053485;28;20421;-76
2022/06/18 14:27:53;;;;;;;7.60;3.20;;;;;;;;;;5053596;28;20413;-76
2022/06/18 14:30:32;;;;;;;8.10;3.10;;;;;;;;;;5052197;28;20518;-75
2022/06/18 14:33:04;;;;;;;7.40;3.33;;;;;;;;;;5051704;28;20798;-76
2022/06/18 14:35:39;;;;;;;12.17;2.87;;;;;;;;;;5053555;28;20528;-76
2022/06/18 14:38:06;;;;;;;6.17;2.90;;;;;;;;;;5052365;28;20502;-78
2022/06/18 14:43:21;;;;;;;5.43;3.20;;;;;;;;;;5053351;28;20403;-78
2022/06/18 14:45:56;;;;;;;9.40;3.10;;;;;;;;;;5053155;28;20429;-78
2022/06/18 14:48:41;;;;;;;6.70;3.00;;;;;;;;;;5052077;28;21011;-77
2022/06/18 14:51:26;;;;;;;5.93;2.97;;;;;;;;;;5053110;28;20416;-78
2022/06/18 14:53:57;;;;;;;4.30;2.63;;;;;;;;;;5052664;28;20413;-76
2022/06/18 14:56:28;;;;;;;8.13;3.77;;;;;;;;;;5053203;28;20433;-76
2022/06/18 14:59:14;;;;;;;9.83;3.40;;;;;;;;;;5051973;28;20408;-77
2022/06/18 15:01:54;;;;;;;7.93;3.53;;;;;;;;;;5048662;28;20423;-78
2022/06/18 15:04:24;;;;;;;6.80;3.50;;;;;;;;;;5051349;28;20471;-78
2022/06/18 15:06:50;;;;;;;7.43;3.13;;;;;;;;;;5052818;28;20412;-78
2022/06/18 15:09:29;;;;;;;10.97;4.00;;;;;;;;;;5052829;28;20452;-78
2022/06/18 15:11:57;;;;;;;9.77;3.60;;;;;;;;;;5033766;28;20428;-78
2022/06/18 15:14:24;;;;;;;8.20;3.43;;;;;;;;;;5034435;28;20417;-77
2022/06/18 15:19:44;;;;;;;12.60;3.40;;;;;;;;;;5030311;28;20417;-78
2022/06/18 15:22:56;;;;;;;8.83;3.30;;;;;;;;;;5052940;28;20432;-77
2022/06/18 15:25:31;;;;;;;7.40;3.10;;;;;;;;;;5036246;28;20945;-78